sensor_id;sensor_type;location;lat;lon;timestamp;pressure;altitude;pressure_sealevel;temperature;humidity
54512;BME280;40419;47.438;19.026;2023-07-13T00:01:15;99560.69;;;24.14;96.39
54512;BME280;40419;47.438;19.026;2023-07-13T00:03:41;99560.03;;;24.22;94.17
54512;BME280;40419;47.438;19.026;2023-07-13T00:06:09;99544.44;;;24.26;93.84
54512;BME280;40419;47.438;19.026;2023-07-13T00:08:35;99553.53;;;24.13;95.45
54512;BME280;40419;47.438;19.026;2023-07-13T00:11:03;99544.84;;;24.19;94.68
54512;BME280;40419;47.438;19.026;2023-07-13T00:13:34;99539.31;;;24.19;90.43
54512;BME280;40419;47.438;19.026;2023-07-13T00:16:00;99525.94;;;24.27;88.05
54512;BME280;40419;47.438;19.026;2023-07-13T00:18:28;99532.59;;;24.26;89.51
54512;BME280;40419;47.438;19.026;2023-07-13T00:20:57;99519.75;;;24.16;90.50
54512;BME280;40419;47.438;19.026;2023-07-13T00:23:40;99506.38;;;24.04;89.45
54512;BME280;40419;47.438;19.026;2023-07-13T00:26:08;99502.56;;;24.00;89.40
54512;BME280;40419;47.438;19.026;2023-07-13T00:28:38;99492.03;;;23.83;89.62
54512;BME280;40419;47.438;19.026;2023-07-13T00:31:04;99489.34;;;24.16;90.06
54512;BME280;40419;47.438;19.026;2023-07-13T00:33:29;99491.22;;;23.63;93.24
54512;BME280;40419;47.438;19.026;2023-07-13T00:35:58;99484.00;;;23.67;94.04
54512;BME280;40419;47.438;19.026;2023-07-13T00:38:25;99487.16;;;23.36;95.44
54512;BME280;40419;47.438;19.026;2023-07-13T00:40:53;99482.09;;;23.44;94.37
54512;BME280;40419;47.438;19.026;2023-07-13T00:43:25;99474.84;;;23.29;91.32
54512;BME280;40419;47.438;19.026;2023-07-13T00:48:30;99475.22;;;23.22;91.60
54512;BME280;40419;47.438;19.026;2023-07-13T00:51:00;99467.19;;;23.45;97.38
54512;BME280;40419;47.438;19.026;2023-07-13T00:53:33;99465.75;;;23.28;100.00
54512;BME280;40419;47.438;19.026;2023-07-13T00:56:02;99453.06;;;23.03;100.00
54512;BME280;40419;47.438;19.026;2023-07-13T01:00:53;99450.97;;;22.95;100.00
54512;BME280;40419;47.438;19.026;2023-07-13T01:03:26;99446.91;;;22.87;100.00
54512;BME280;40419;47.438;19.026;2023-07-13T01:05:53;99439.50;;;22.82;100.00
54512;BME280;40419;47.438;19.026;2023-07-13T01:08:24;99429.31;;;22.83;100.00
54512;BME280;40419;47.438;19.026;2023-07-13T01:10:53;99432.59;;;22.85;99.71
54512;BME280;40419;47.438;19.026;2023-07-13T01:13:19;99429.03;;;22.85;98.82
54512;BME280;40419;47.438;19.026;2023-07-13T01:15:51;99426.19;;;22.90;98.66
54512;BME280;40419;47.438;19.026;2023-07-13T01:18:22;99425.59;;;22.93;99.84
54512;BME280;40419;47.438;19.026;2023-07-13T01:21:01;99417.56;;;22.96;99.00
54512;BME280;40419;47.438;19.026;2023-07-13T01:23:31;99428.00;;;22.99;97.42
54512;BME280;40419;47.438;19.026;2023-07-13T01:26:00;99442.09;;;22.98;97.57
54512;BME280;40419;47.438;19.026;2023-07-13T01:28:34;99431.22;;;22.82;98.87
54512;BME280;40419;47.438;19.026;2023-07-13T01:31:02;99429.53;;;22.87;98.05
54512;BME280;40419;47.438;19.026;2023-07-13T01:33:28;99434.41;;;22.95;97.56
54512;BME280;40419;47.438;19.026;2023-07-13T01:35:58;99435.91;;;23.06;96.95
54512;BME280;40419;47.438;19.026;2023-07-13T01:38:27;99429.72;;;22.95;96.95
54512;BME280;40419;47.438;19.026;2023-07-13T01:40:55;99419.09;;;22.83;97.93
54512;BME280;40419;47.438;19.026;2023-07-13T01:43:23;99414.16;;;22.80;98.32
54512;BME280;40419;47.438;19.026;2023-07-13T01:45:49;99412.75;;;23.02;97.44
54512;BME280;40419;47.438;19.026;2023-07-13T01:48:14;99400.59;;;22.60;100.00
54512;BME280;40419;47.438;19.026;2023-07-13T01:50:41;99393.16;;;22.60;100.00
54512;BME280;40419;47.438;19.026;2023-07-13T01:53:11;99397.03;;;22.59;100.00
54512;BME280;40419;47.438;19.026;2023-07-13T01:55:39;99396.25;;;22.54;100.00
54512;BME280;40419;47.438;19.026;2023-07-13T01:58:07;99401.03;;;22.48;100.00
54512;BME280;40419;47.438;19.026;2023-07-13T02:00:36;99386.19;;;22.44;100.00
54512;BME280;40419;47.438;19.026;2023-07-13T02:03:01;99381.44;;;22.50;100.00
54512;BME280;40419;47.438;19.026;2023-07-13T02:05:27;99378.97;;;22.48;100.00
54512;BME280;40419;47.438;19.026;2023-07-13T02:07:52;99378.91;;;22.53;100.00
54512;BME280;40419;47.438;19.026;2023-07-13T02:10:20;99387.81;;;22.45;100.00
54512;BME280;40419;47.438;19.026;2023-07-13T02:12:51;99397.63;;;22.56;100.00
54512;BME280;40419;47.438;19.026;2023-07-13T02:15:19;99395.53;;;22.48;100.00
54512;BME280;40419;47.438;19.026;2023-07-13T02:17:44;99398.50;;;22.52;100.00
54512;BME280;40419;47.438;19.026;2023-07-13T02:20:12;99385.22;;;22.54;100.00
54512;BME280;40419;47.438;19.026;2023-07-13T02:22:43;99386.22;;;22.39;100.00
54512;BME280;40419;47.438;19.026;2023-07-13T02:25:10;99391.44;;;22.40;100.00
54512;BME280;40419;47.438;19.026;2023-07-13T02:27:36;99383.00;;;22.32;100.00
54512;BME280;40419;47.438;19.026;2023-07-13T02:30:02;99376.31;;;22.38;100.00
54512;BME280;40419;47.438;19.026;2023-07-13T02:32:28;99389.03;;;22.34;100.00
54512;BME280;40419;47.438;19.026;2023-07-13T02:34:54;99413.34;;;22.32;100.00
54512;BME280;40419;47.438;19.026;2023-07-13T02:37:19;99407.84;;;22.26;100.00
54512;BME280;40419;47.438;19.026;2023-07-13T02:39:49;99403.91;;;22.38;100.00
54512;BME280;40419;47.438;19.026;2023-07-13T02:42:15;99400.13;;;22.28;100.00
54512;BME280;40419;47.438;19.026;2023-07-13T02:44:43;99399.34;;;22.23;100.00
54512;BME280;40419;47.438;19.026;2023-07-13T02:47:11;99405.75;;;22.13;100.00
54512;BME280;40419;47.438;19.026;2023-07-13T02:49:39;99420.91;;;22.16;100.00
54512;BME280;40419;47.438;19.026;2023-07-13T02:52:07;99412.41;;;22.12;100.00
54512;BME280;40419;47.438;19.026;2023-07-13T02:54:32;99420.13;;;22.10;100.00
54512;BME280;40419;47.438;19.026;2023-07-13T02:57:00;99415.69;;;22.14;100.00
54512;BME280;40419;47.438;19.026;2023-07-13T02:59:31;99421.94;;;21.95;100.00
54512;BME280;40419;47.438;19.026;2023-07-13T03:01:56;99421.00;;;22.05;100.00
54512;BME280;40419;47.438;19.026;2023-07-13T03:04:24;99437.75;;;22.14;100.00
54512;BME280;40419;47.438;19.026;2023-07-13T03:06:50;99429.81;;;22.07;100.00
54512;BME280;40419;47.438;19.026;2023-07-13T03:09:18;99448.25;;;22.12;100.00
54512;BME280;40419;47.438;19.026;2023-07-13T03:11:53;99448.47;;;22.16;100.00
54512;BME280;40419;47.438;19.026;2023-07-13T03:14:25;99451.66;;;22.28;100.00
54512;BME280;40419;47.438;19.026;2023-07-13T03:16:51;99454.94;;;22.35;100.00
54512;BME280;40419;47.438;19.026;2023-07-13T03:19:19;99450.53;;;22.34;100.00
54512;BME280;40419;47.438;19.026;2023-07-13T03:21:51;99454.19;;;22.54;100.00
54512;BME280;40419;47.438;19.026;2023-07-13T03:24:19;99443.56;;;22.42;100.00
54512;BME280;40419;47.438;19.026;2023-07-13T03:26:45;99441.94;;;22.65;100.00
54512;BME280;40419;47.438;19.026;2023-07-13T03:29:13;99445.00;;;23.07;100.00
54512;BME280;40419;47.438;19.026;2023-07-13T03:31:42;99439.47;;;23.12;100.00
54512;BME280;40419;47.438;19.026;2023-07-13T03:34:13;99438.19;;;22.80;100.00
54512;BME280;40419;47.438;19.026;2023-07-13T03:36:41;99427.59;;;22.63;100.00
54512;BME280;40419;47.438;19.026;2023-07-13T03:39:10;99442.69;;;22.46;100.00
54512;BME280;40419;47.438;19.026;2023-07-13T03:41:48;99434.13;;;22.48;100.00
54512;BME280;40419;47.438;19.026;2023-07-13T03:44:16;99446.69;;;22.59;100.00
54512;BME280;40419;47.438;19.026;2023-07-13T03:46:44;99447.16;;;22.67;100.00
54512;BME280;40419;47.438;19.026;2023-07-13T03:49:13;99443.53;;;22.71;100.00
54512;BME280;40419;47.438;19.026;2023-07-13T03:51:39;99441.66;;;22.67;100.00
54512;BME280;40419;47.438;19.026;2023-07-13T03:54:07;99445.00;;;22.63;100.00
54512;BME280;40419;47.438;19.026;2023-07-13T03:56:35;99440.19;;;22.74;100.00
54512;BME280;40419;47.438;19.026;2023-07-13T03:59:03;99451.03;;;22.65;100.00
54512;BME280;40419;47.438;19.026;2023-07-13T04:01:29;99446.28;;;22.71;100.00
54512;BME280;40419;47.438;19.026;2023-07-13T04:03:57;99459.78;;;22.73;100.00
54512;BME280;40419;47.438;19.026;2023-07-13T04:06:29;99464.41;;;22.77;100.00
54512;BME280;40419;47.438;19.026;2023-07-13T04:09:00;99481.19;;;22.81;100.00
54512;BME280;40419;47.438;19.026;2023-07-13T04:11:32;99497.59;;;22.72;100.00
54512;BME280;40419;47.438;19.026;2023-07-13T04:14:00;99516.94;;;22.67;100.00
54512;BME280;40419;47.438;19.026;2023-07-13T04:16:31;99527.38;;;22.46;100.00
54512;BME280;40419;47.438;19.026;2023-07-13T04:18:59;99518.06;;;22.37;100.00
54512;BME280;40419;47.438;19.026;2023-07-13T04:21:28;99507.59;;;22.04;100.00
54512;BME280;40419;47.438;19.026;2023-07-13T04:23:54;99512.84;;;22.35;100.00
54512;BME280;40419;47.438;19.026;2023-07-13T04:26:20;99520.81;;;22.02;100.00
54512;BME280;40419;47.438;19.026;2023-07-13T04:28:51;99525.81;;;21.95;100.00
54512;BME280;40419;47.438;19.026;2023-07-13T04:31:19;99537.63;;;22.01;100.00
54512;BME280;40419;47.438;19.026;2023-07-13T04:33:48;99541.59;;;21.84;100.00
54512;BME280;40419;47.438;19.026;2023-07-13T04:36:16;99546.31;;;21.84;100.00
54512;BME280;40419;47.438;19.026;2023-07-13T04:38:45;99554.16;;;22.01;100.00
54512;BME280;40419;47.438;19.026;2023-07-13T04:41:14;99551.47;;;21.95;100.00
54512;BME280;40419;47.438;19.026;2023-07-13T04:43:48;99558.88;;;21.95;100.00
54512;BME280;40419;47.438;19.026;2023-07-13T04:46:15;99566.91;;;21.91;100.00
54512;BME280;40419;47.438;19.026;2023-07-13T04:48:45;99558.47;;;21.77;100.00
54512;BME280;40419;47.438;19.026;2023-07-13T04:51:10;99568.41;;;21.73;100.00
54512;BME280;40419;47.438;19.026;2023-07-13T04:53:41;99582.50;;;21.62;100.00
54512;BME280;40419;47.438;19.026;2023-07-13T04:56:08;99594.38;;;21.62;100.00
54512;BME280;40419;47.438;19.026;2023-07-13T04:58:34;99596.06;;;21.42;100.00
54512;BME280;40419;47.438;19.026;2023-07-13T05:01:07;99605.16;;;21.43;100.00
54512;BME280;40419;47.438;19.026;2023-07-13T05:03:34;99628.34;;;21.16;100.00
54512;BME280;40419;47.438;19.026;2023-07-13T05:06:07;99659.22;;;20.98;100.00
54512;BME280;40419;47.438;19.026;2023-07-13T05:08:40;99691.69;;;20.85;100.00
54512;BME280;40419;47.438;19.026;2023-07-13T05:11:06;99709.28;;;20.84;100.00
54512;BME280;40419;47.438;19.026;2023-07-13T05:13:34;99718.59;;;20.63;100.00
54512;BME280;40419;47.438;19.026;2023-07-13T05:16:02;99732.34;;;20.52;100.00
54512;BME280;40419;47.438;19.026;2023-07-13T05:18:32;99741.94;;;20.40;100.00
54512;BME280;40419;47.438;19.026;2023-07-13T05:21:03;99742.09;;;20.02;100.00
54512;BME280;40419;47.438;19.026;2023-07-13T05:23:30;99738.75;;;19.95;100.00
54512;BME280;40419;47.438;19.026;2023-07-13T05:26:05;99740.94;;;19.93;100.00
54512;BME280;40419;47.438;19.026;2023-07-13T05:28:31;99727.44;;;19.86;100.00
54512;BME280;40419;47.438;19.026;2023-07-13T05:30:57;99733.81;;;19.92;100.00
54512;BME280;40419;47.438;19.026;2023-07-13T05:33:25;99712.59;;;19.82;100.00
54512;BME280;40419;47.438;19.026;2023-07-13T05:35:51;99710.34;;;19.74;100.00
54512;BME280;40419;47.438;19.026;2023-07-13T05:38:17;99714.34;;;19.51;100.00
54512;BME280;40419;47.438;19.026;2023-07-13T05:40:45;99715.09;;;19.41;100.00
54512;BME280;40419;47.438;19.026;2023-07-13T05:43:12;99710.38;;;19.31;100.00
54512;BME280;40419;47.438;19.026;2023-07-13T05:45:40;99710.13;;;19.38;100.00
54512;BME280;40419;47.438;19.026;2023-07-13T05:48:08;99699.41;;;19.31;100.00
54512;BME280;40419;47.438;19.026;2023-07-13T05:50:36;99683.50;;;19.38;100.00
54512;BME280;40419;47.438;19.026;2023-07-13T05:53:04;99674.97;;;19.29;100.00
54512;BME280;40419;47.438;19.026;2023-07-13T05:55:32;99661.78;;;19.26;100.00
54512;BME280;40419;47.438;19.026;2023-07-13T05:58:01;99649.69;;;19.27;100.00
54512;BME280;40419;47.438;19.026;2023-07-13T06:00:29;99652.75;;;19.31;100.00
54512;BME280;40419;47.438;19.026;2023-07-13T06:02:55;99642.78;;;19.20;100.00
54512;BME280;40419;47.438;19.026;2023-07-13T06:05:28;99634.22;;;19.11;100.00
54512;BME280;40419;47.438;19.026;2023-07-13T06:07:54;99578.50;;;19.05;100.00
54512;BME280;40419;47.438;19.026;2023-07-13T06:10:22;99489.09;;;19.15;100.00
54512;BME280;40419;47.438;19.026;2023-07-13T06:12:50;99392.75;;;19.06;100.00
54512;BME280;40419;47.438;19.026;2023-07-13T06:15:18;99358.91;;;18.80;100.00
54512;BME280;40419;47.438;19.026;2023-07-13T06:17:49;99315.63;;;18.87;100.00
54512;BME280;40419;47.438;19.026;2023-07-13T06:20:17;99338.94;;;18.94;100.00
54512;BME280;40419;47.438;19.026;2023-07-13T06:22:47;99341.75;;;19.10;100.00
54512;BME280;40419;47.438;19.026;2023-07-13T06:25:15;99361.22;;;19.08;100.00
54512;BME280;40419;47.438;19.026;2023-07-13T06:27:46;99336.16;;;18.84;100.00
54512;BME280;40419;47.438;19.026;2023-07-13T06:30:12;99327.97;;;18.89;100.00
54512;BME280;40419;47.438;19.026;2023-07-13T06:32:37;99310.16;;;18.97;100.00
54512;BME280;40419;47.438;19.026;2023-07-13T06:35:06;99321.38;;;18.85;100.00
54512;BME280;40419;47.438;19.026;2023-07-13T06:37:32;99314.00;;;19.06;100.00
54512;BME280;40419;47.438;19.026;2023-07-13T06:39:58;99328.28;;;19.13;100.00
54512;BME280;40419;47.438;19.026;2023-07-13T06:42:24;99338.69;;;19.01;100.00
54512;BME280;40419;47.438;19.026;2023-07-13T06:44:49;99331.59;;;19.26;100.00
54512;BME280;40419;47.438;19.026;2023-07-13T06:47:17;99342.28;;;19.12;100.00
54512;BME280;40419;47.438;19.026;2023-07-13T06:49:42;99338.44;;;19.08;100.00
54512;BME280;40419;47.438;19.026;2023-07-13T06:52:08;99359.06;;;19.52;100.00
54512;BME280;40419;47.438;19.026;2023-07-13T06:54:38;99345.88;;;19.54;100.00
54512;BME280;40419;47.438;19.026;2023-07-13T06:57:04;99348.34;;;19.45;100.00
54512;BME280;40419;47.438;19.026;2023-07-13T06:59:35;99353.56;;;19.72;100.00
54512;BME280;40419;47.438;19.026;2023-07-13T07:02:05;99360.97;;;20.03;100.00
54512;BME280;40419;47.438;19.026;2023-07-13T07:04:31;99356.78;;;20.26;100.00
54512;BME280;40419;47.438;19.026;2023-07-13T07:06:59;99368.84;;;20.40;100.00
54512;BME280;40419;47.438;19.026;2023-07-13T07:09:24;99383.63;;;20.60;100.00
54512;BME280;40419;47.438;19.026;2023-07-13T07:11:52;99381.41;;;20.72;100.00
54512;BME280;40419;47.438;19.026;2023-07-13T07:14:22;99445.63;;;21.07;100.00
54512;BME280;40419;47.438;19.026;2023-07-13T07:16:49;99515.72;;;21.25;100.00
54512;BME280;40419;47.438;19.026;2023-07-13T07:19:20;99521.78;;;21.27;100.00
54512;BME280;40419;47.438;19.026;2023-07-13T07:21:45;99551.56;;;21.20;100.00
54512;BME280;40419;47.438;19.026;2023-07-13T07:24:11;99543.19;;;21.40;100.00
54512;BME280;40419;47.438;19.026;2023-07-13T07:26:36;99566.56;;;21.48;100.00
54512;BME280;40419;47.438;19.026;2023-07-13T07:29:06;99548.69;;;21.56;100.00
54512;BME280;40419;47.438;19.026;2023-07-13T07:31:34;99550.59;;;21.55;100.00
54512;BME280;40419;47.438;19.026;2023-07-13T07:34:00;99560.28;;;21.37;100.00
54512;BME280;40419;47.438;19.026;2023-07-13T07:36:33;99574.22;;;21.67;100.00
54512;BME280;40419;47.438;19.026;2023-07-13T07:39:01;99568.50;;;22.03;100.00
54512;BME280;40419;47.438;19.026;2023-07-13T07:41:30;99576.09;;;22.21;100.00
54512;BME280;40419;47.438;19.026;2023-07-13T07:44:03;99578.88;;;22.16;100.00
54512;BME280;40419;47.438;19.026;2023-07-13T07:46:37;99580.53;;;22.17;100.00
54512;BME280;40419;47.438;19.026;2023-07-13T07:49:08;99587.75;;;22.08;100.00
54512;BME280;40419;47.438;19.026;2023-07-13T07:51:36;99580.28;;;22.13;100.00
54512;BME280;40419;47.438;19.026;2023-07-13T07:54:04;99591.81;;;22.60;100.00
54512;BME280;40419;47.438;19.026;2023-07-13T07:56:30;99583.19;;;22.67;100.00
54512;BME280;40419;47.438;19.026;2023-07-13T07:59:03;99589.84;;;22.90;100.00
54512;BME280;40419;47.438;19.026;2023-07-13T08:01:33;99586.91;;;23.11;100.00
54512;BME280;40419;47.438;19.026;2023-07-13T08:03:58;99591.41;;;23.01;100.00
54512;BME280;40419;47.438;19.026;2023-07-13T08:06:26;99591.06;;;23.32;100.00
54512;BME280;40419;47.438;19.026;2023-07-13T08:08:54;99584.03;;;23.45;100.00
54512;BME280;40419;47.438;19.026;2023-07-13T08:11:23;99575.63;;;23.56;100.00
54512;BME280;40419;47.438;19.026;2023-07-13T08:13:53;99583.19;;;23.69;100.00
54512;BME280;40419;47.438;19.026;2023-07-13T08:16:22;99587.53;;;23.94;100.00
54512;BME280;40419;47.438;19.026;2023-07-13T08:18:48;99585.19;;;23.82;100.00
54512;BME280;40419;47.438;19.026;2023-07-13T08:21:13;99591.94;;;23.52;100.00
54512;BME280;40419;47.438;19.026;2023-07-13T08:23:39;99584.91;;;23.41;100.00
54512;BME280;40419;47.438;19.026;2023-07-13T08:26:05;99588.50;;;23.17;100.00
54512;BME280;40419;47.438;19.026;2023-07-13T08:28:35;99594.16;;;23.01;100.00
54512;BME280;40419;47.438;19.026;2023-07-13T08:31:02;99586.69;;;23.02;100.00
54512;BME280;40419;47.438;19.026;2023-07-13T08:33:30;99581.47;;;23.49;100.00
54512;BME280;40419;47.438;19.026;2023-07-13T08:36:04;99580.34;;;23.74;100.00
54512;BME280;40419;47.438;19.026;2023-07-13T08:38:33;99586.50;;;24.09;100.00
54512;BME280;40419;47.438;19.026;2023-07-13T08:41:10;99587.88;;;24.45;100.00
54512;BME280;40419;47.438;19.026;2023-07-13T08:43:39;99577.53;;;24.50;100.00
54512;BME280;40419;47.438;19.026;2023-07-13T08:46:36;99581.66;;;24.53;100.00
54512;BME280;40419;47.438;19.026;2023-07-13T08:49:11;99586.56;;;24.56;100.00
54512;BME280;40419;47.438;19.026;2023-07-13T08:54:22;99590.84;;;24.48;100.00
54512;BME280;40419;47.438;19.026;2023-07-13T08:56:57;99591.56;;;24.73;100.00
54512;BME280;40419;47.438;19.026;2023-07-13T08:59:29;99595.78;;;24.70;94.09
54512;BME280;40419;47.438;19.026;2023-07-13T09:02:14;99587.75;;;25.16;95.01
54512;BME280;40419;47.438;19.026;2023-07-13T09:04:44;99588.94;;;24.95;95.32
54512;BME280;40419;47.438;19.026;2023-07-13T09:10:12;99589.41;;;25.44;94.72
54512;BME280;40419;47.438;19.026;2023-07-13T09:15:46;99588.88;;;25.70;87.97
54512;BME280;40419;47.438;19.026;2023-07-13T09:18:21;99593.78;;;25.73;88.24
54512;BME280;40419;47.438;19.026;2023-07-13T09:21:11;99585.19;;;25.61;88.42
54512;BME280;40419;47.438;19.026;2023-07-13T09:23:38;99586.03;;;25.47;94.01
54512;BME280;40419;47.438;19.026;2023-07-13T09:26:18;99584.97;;;25.57;93.25
54512;BME280;40419;47.438;19.026;2023-07-13T09:28:49;99595.81;;;25.95;90.89
54512;BME280;40419;47.438;19.026;2023-07-13T09:31:33;99596.44;;;25.78;89.87
54512;BME280;40419;47.438;19.026;2023-07-13T09:34:06;99603.09;;;26.05;87.13
54512;BME280;40419;47.438;19.026;2023-07-13T09:36:34;99614.16;;;26.19;87.40
54512;BME280;40419;47.438;19.026;2023-07-13T09:39:21;99615.66;;;26.48;90.75
54512;BME280;40419;47.438;19.026;2023-07-13T09:42:15;99615.72;;;26.34;89.18
54512;BME280;40419;47.438;19.026;2023-07-13T09:44:59;99619.34;;;26.34;89.63
54512;BME280;40419;47.438;19.026;2023-07-13T09:47:32;99621.53;;;26.46;83.58
54512;BME280;40419;47.438;19.026;2023-07-13T09:50:06;99612.53;;;26.63;85.15
54512;BME280;40419;47.438;19.026;2023-07-13T09:52:44;99623.91;;;26.76;84.86
54512;BME280;40419;47.438;19.026;2023-07-13T09:55:34;99633.34;;;26.52;83.49
54512;BME280;40419;47.438;19.026;2023-07-13T10:00:33;99629.00;;;26.00;84.42
54512;BME280;40419;47.438;19.026;2023-07-13T10:05:43;99622.25;;;25.79;83.15
54512;BME280;40419;47.438;19.026;2023-07-13T10:10:44;99627.28;;;25.63;86.00
54512;BME280;40419;47.438;19.026;2023-07-13T10:15:59;99637.50;;;26.04;84.10
54512;BME280;40419;47.438;19.026;2023-07-13T10:18:33;99626.81;;;26.11;81.24
54512;BME280;40419;47.438;19.026;2023-07-13T10:21:11;99640.22;;;26.55;80.08
54512;BME280;40419;47.438;19.026;2023-07-13T10:23:39;99641.53;;;26.57;79.16
54512;BME280;40419;47.438;19.026;2023-07-13T10:26:06;99638.22;;;26.69;81.64
54512;BME280;40419;47.438;19.026;2023-07-13T10:28:38;99652.41;;;26.67;80.02
54512;BME280;40419;47.438;19.026;2023-07-13T10:31:12;99644.75;;;26.50;79.80
54512;BME280;40419;47.438;19.026;2023-07-13T10:33:41;99637.59;;;26.72;78.97
54512;BME280;40419;47.438;19.026;2023-07-13T10:39:04;99641.41;;;27.08;70.24
54512;BME280;40419;47.438;19.026;2023-07-13T10:41:41;99645.97;;;27.03;75.44
54512;BME280;40419;47.438;19.026;2023-07-13T10:44:18;99642.44;;;27.20;76.24
54512;BME280;40419;47.438;19.026;2023-07-13T10:46:48;99632.28;;;27.16;74.63
54512;BME280;40419;47.438;19.026;2023-07-13T10:49:14;99636.22;;;27.15;71.48
54512;BME280;40419;47.438;19.026;2023-07-13T10:51:44;99639.53;;;27.26;71.59
54512;BME280;40419;47.438;19.026;2023-07-13T10:54:21;99639.31;;;27.45;69.16
54512;BME280;40419;47.438;19.026;2023-07-13T10:56:52;99642.72;;;27.41;69.34
54512;BME280;40419;47.438;19.026;2023-07-13T10:59:25;99641.91;;;27.41;70.17
54512;BME280;40419;47.438;19.026;2023-07-13T11:04:44;99636.59;;;27.31;74.10
54512;BME280;40419;47.438;19.026;2023-07-13T11:07:25;99631.19;;;27.66;67.96
54512;BME280;40419;47.438;19.026;2023-07-13T11:09:57;99641.38;;;27.79;64.89
54512;BME280;40419;47.438;19.026;2023-07-13T11:25:24;99633.72;;;27.36;69.48
54512;BME280;40419;47.438;19.026;2023-07-13T11:36:03;99627.41;;;27.21;72.79
54512;BME280;40419;47.438;19.026;2023-07-13T11:38:37;99621.69;;;27.18;72.54
54512;BME280;40419;47.438;19.026;2023-07-13T11:43:44;99624.47;;;27.49;70.14
54512;BME280;40419;47.438;19.026;2023-07-13T11:46:23;99625.81;;;27.69;69.77
54512;BME280;40419;47.438;19.026;2023-07-13T11:48:50;99639.34;;;27.22;69.67
54512;BME280;40419;47.438;19.026;2023-07-13T11:53:53;99639.16;;;27.18;69.74
54512;BME280;40419;47.438;19.026;2023-07-13T11:56:23;99634.47;;;26.96;73.95
54512;BME280;40419;47.438;19.026;2023-07-13T11:58:51;99623.41;;;27.05;72.68
54512;BME280;40419;47.438;19.026;2023-07-13T12:01:24;99624.41;;;27.09;73.03
54512;BME280;40419;47.438;19.026;2023-07-13T12:03:57;99627.53;;;27.39;68.93
54512;BME280;40419;47.438;19.026;2023-07-13T12:06:33;99623.78;;;27.44;71.68
54512;BME280;40419;47.438;19.026;2023-07-13T12:09:13;99612.47;;;27.40;70.25
54512;BME280;40419;47.438;19.026;2023-07-13T12:11:41;99612.84;;;27.56;72.60
54512;BME280;40419;47.438;19.026;2023-07-13T12:14:16;99613.50;;;27.53;74.18
54512;BME280;40419;47.438;19.026;2023-07-13T12:16:45;99606.69;;;27.28;72.17
54512;BME280;40419;47.438;19.026;2023-07-13T12:19:22;99618.72;;;27.14;71.66
54512;BME280;40419;47.438;19.026;2023-07-13T12:21:55;99615.00;;;27.28;69.01
54512;BME280;40419;47.438;19.026;2023-07-13T12:24:26;99610.56;;;27.49;68.18
54512;BME280;40419;47.438;19.026;2023-07-13T12:27:04;99606.25;;;27.34;68.22
54512;BME280;40419;47.438;19.026;2023-07-13T12:29:31;99598.00;;;27.29;70.52
54512;BME280;40419;47.438;19.026;2023-07-13T12:31:59;99606.16;;;27.57;69.40
54512;BME280;40419;47.438;19.026;2023-07-13T12:34:26;99598.16;;;27.55;70.34
54512;BME280;40419;47.438;19.026;2023-07-13T12:36:59;99597.50;;;27.58;67.99
54512;BME280;40419;47.438;19.026;2023-07-13T12:39:37;99588.81;;;27.51;71.04
54512;BME280;40419;47.438;19.026;2023-07-13T12:44:48;99589.75;;;27.38;70.92
54512;BME280;40419;47.438;19.026;2023-07-13T12:47:14;99603.00;;;27.41;72.67
54512;BME280;40419;47.438;19.026;2023-07-13T12:50:12;99607.47;;;27.51;70.45
54512;BME280;40419;47.438;19.026;2023-07-13T12:52:39;99599.56;;;27.44;72.40
54512;BME280;40419;47.438;19.026;2023-07-13T12:55:15;99597.19;;;27.69;70.04
54512;BME280;40419;47.438;19.026;2023-07-13T12:57:55;99607.34;;;27.73;67.54
54512;BME280;40419;47.438;19.026;2023-07-13T13:00:29;99595.78;;;27.40;70.13
54512;BME280;40419;47.438;19.026;2023-07-13T13:03:05;99604.47;;;27.38;69.70
54512;BME280;40419;47.438;19.026;2023-07-13T13:05:33;99599.94;;;27.51;65.14
54512;BME280;40419;47.438;19.026;2023-07-13T13:08:01;99601.94;;;27.68;67.39
54512;BME280;40419;47.438;19.026;2023-07-13T13:10:29;99590.31;;;27.66;68.25
54512;BME280;40419;47.438;19.026;2023-07-13T13:12:54;99584.56;;;27.54;68.37
54512;BME280;40419;47.438;19.026;2023-07-13T13:15:20;99591.63;;;27.60;66.26
54512;BME280;40419;47.438;19.026;2023-07-13T13:17:49;99583.44;;;27.64;64.27
54512;BME280;40419;47.438;19.026;2023-07-13T13:20:21;99579.31;;;27.44;66.73
54512;BME280;40419;47.438;19.026;2023-07-13T13:22:49;99572.31;;;27.64;65.21
54512;BME280;40419;47.438;19.026;2023-07-13T13:25:25;99581.66;;;27.68;64.85
54512;BME280;40419;47.438;19.026;2023-07-13T13:27:50;99577.41;;;27.79;65.64
54512;BME280;40419;47.438;19.026;2023-07-13T13:30:17;99582.63;;;27.72;65.02
54512;BME280;40419;47.438;19.026;2023-07-13T13:32:45;99578.06;;;27.76;65.95
54512;BME280;40419;47.438;19.026;2023-07-13T13:35:16;99577.88;;;27.64;64.49
54512;BME280;40419;47.438;19.026;2023-07-13T13:37:43;99587.03;;;27.73;64.30
54512;BME280;40419;47.438;19.026;2023-07-13T13:40:16;99585.22;;;27.51;65.92
54512;BME280;40419;47.438;19.026;2023-07-13T13:42:45;99587.03;;;27.15;68.11
54512;BME280;40419;47.438;19.026;2023-07-13T13:45:11;99578.09;;;26.96;68.80
54512;BME280;40419;47.438;19.026;2023-07-13T13:47:43;99584.91;;;27.21;68.43
54512;BME280;40419;47.438;19.026;2023-07-13T13:50:18;99573.22;;;27.33;68.12
54512;BME280;40419;47.438;19.026;2023-07-13T13:52:48;99566.84;;;27.32;69.24
54512;BME280;40419;47.438;19.026;2023-07-13T13:55:20;99570.66;;;27.45;63.31
54512;BME280;40419;47.438;19.026;2023-07-13T13:57:47;99577.63;;;27.34;66.09